Portada
METAR-TAF:

METAR-TAF

Aeroports :

Shell Mera, Equador

latitud: 01-30-19S, longitud: 078-03-46W, altitud: 1056 m

Observació

L'informe es va fer fa 1 hora i 1 minuts, a les 18:00 UTC
Vent 8 kt del Est
Temperatura 30°C
Humitat 59%
Pressió 1014 hPa
Visibilitat 10 km o més
Escasses núvols a una alçada de 1600 ft, Cumulonimbus.
Núvols disperses a una alçada de 3000 ft
Cel ennuvolat a una alçada de 10000 ft
tempesta, pluja

METAR: SESM 181800Z 09008KT 9999 -TSRA FEW016CB SCT030 BKN100 30/21 Q1014 RMK A2995

Hora: 14:01 (19:01 UTC)


TAF: manca

Observacions i pronòstics meteorològics de més de 4000 aeroports (METAR i TAF).

Les estacions disponibles són els punts grocs i vermells al mapa.

Posi el ratolí al punt desitjat per veure el nom de l'estació.

Feu clic per veure les observacions i els pronòstics meteorològics.

Per canviar el mapa: feu clic els botons verds amb una creu de color negre per apropar; al botó verd amb un guió per allunyar la imatge; o en les fletxes verdes per a mapes adjacents.


METAR-TAF: